CheckWX is a tool to help pilots better visualize weather data.  It is not intended as a substitute for an official pre-flight weather briefing.

04:20:54 UTC

HTSU METAR
Sumbawanga Airport
Sumbawanga, Tanzania
Current

13 hours ago

HTSU 241500Z 12005KT 9999 SCT022 FEW024 25/15 Q1019
Observed
Apr-24 @ 15:00 UTC
Wind
  • 120° at 5 KTS
Visibility
10,000+ meters
Flight Rules
VFR
Cloud Levels
  • Scattered at 2,200' AGL
  • Few at 2,400' AGL
Temperature
25°C / 77°F
Dewpoint
15°C / 59°F
Humidity
54%
Altimeter
30.09" Hg
Pressure
1018.92 hPa
Previous

14 hours ago

HTSU 241400Z 13008KT 9999 BKN023 FEW025CB 25/16 Q1019
Observed
Apr-24 @ 14:00 UTC
Wind
  • 130° at 8 KTS
Visibility
10,000+ meters
Flight Rules
MVFR
Cloud Levels
  • Broken at 2,300' AGL
  • Few at 2,500' AGL
Temperature
25°C / 77°F
Dewpoint
16°C / 61°F
Humidity
57%
Altimeter
30.09" Hg
Pressure
1018.92 hPa
Previous

15 hours ago

HTSU 241300Z 15006KT 9999 BKN024 25/15 Q1019
Observed
Apr-24 @ 13:00 UTC
Wind
  • 150° at 6 KTS
Visibility
10,000+ meters
Flight Rules
MVFR
Cloud Levels
  • Broken at 2,400' AGL
Temperature
25°C / 77°F
Dewpoint
15°C / 59°F
Humidity
54%
Altimeter
30.09" Hg
Pressure
1018.92 hPa